Time;durP1;ratioP1;P1;durP2;ratioP2;P2;SDS_P1;SDS_P2;PMS_P1;PMS_P2;Temp;Humidity;BMP_temperature;BMP_pressure;BME280_temperature;BME280_humidity;BME280_pressure;Samples;Min_cycle;Max_cycle;Signal;HPM_P1;HPM_P2
2023/08/17 00:01:08;;;;;;;4.93;4.73;;;;;;;17.01;89.30;101635.81;4824563;29;20253;-74
2023/08/17 00:03:34;;;;;;;4.10;3.93;;;;;;;17.00;89.52;101629.56;4824182;29;20234;-74
2023/08/17 00:06:01;;;;;;;4.13;3.93;;;;;;;17.02;89.10;101623.97;4824475;29;20236;-74
2023/08/17 00:08:27;;;;;;;4.60;4.57;;;;;;;17.01;89.03;101606.94;4824371;29;20279;-74
2023/08/17 00:10:53;;;;;;;4.40;4.10;;;;;;;16.98;89.34;101615.34;4827203;29;20640;-74
2023/08/17 00:13:20;;;;;;;5.47;5.17;;;;;;;16.98;89.43;101612.66;4827966;29;20203;-74
2023/08/17 00:15:47;;;;;;;5.17;4.90;;;;;;;16.94;89.49;101614.00;4827692;29;20251;-74
2023/08/17 00:18:13;;;;;;;4.20;4.10;;;;;;;16.95;89.40;101609.47;4827763;29;20214;-74
2023/08/17 00:20:40;;;;;;;5.90;5.60;;;;;;;16.95;89.33;101599.50;4827845;29;20191;-74
2023/08/17 00:23:06;;;;;;;5.17;4.87;;;;;;;16.97;89.33;101602.91;4827708;29;20211;-74
2023/08/17 00:25:32;;;;;;;4.30;3.90;;;;;;;16.95;89.62;101599.50;4827472;29;20203;-74
2023/08/17 00:27:59;;;;;;;4.43;4.23;;;;;;;16.96;89.78;101608.47;4827498;29;20215;-74
2023/08/17 00:30:25;;;;;;;4.20;4.00;;;;;;;16.92;89.45;101609.81;4826164;29;20203;-74
2023/08/17 00:32:52;;;;;;;5.57;5.00;;;;;;;16.89;89.57;101619.94;4826116;29;20199;-74
2023/08/17 00:35:18;;;;;;;4.40;3.87;;;;;;;16.89;89.90;101621.78;4827546;29;20191;-74
2023/08/17 00:37:45;;;;;;;4.33;4.10;;;;;;;16.89;89.68;101621.78;4827144;29;20280;-74
2023/08/17 00:40:11;;;;;;;4.43;4.33;;;;;;;16.91;89.96;101625.19;4825840;29;20222;-74
2023/08/17 00:42:38;;;;;;;4.63;4.30;;;;;;;16.92;89.63;101618.75;4825852;29;20219;-74
2023/08/17 00:45:05;;;;;;;4.50;4.30;;;;;;;16.95;89.76;101613.00;4827137;29;20606;-73
2023/08/17 00:47:31;;;;;;;4.83;4.10;;;;;;;16.97;89.81;101615.56;4825785;29;20216;-73
2023/08/17 00:49:59;;;;;;;4.87;4.20;;;;;;;16.96;89.69;101616.56;4827016;29;20198;-73
2023/08/17 00:52:25;;;;;;;4.20;4.20;;;;;;;16.96;89.65;101611.16;4825788;29;20198;-73
2023/08/17 00:54:52;;;;;;;5.17;4.97;;;;;;;16.99;89.85;101613.50;4826954;29;20195;-74
2023/08/17 00:57:19;;;;;;;4.20;4.10;;;;;;;16.97;89.67;101612.84;4826879;29;20215;-74
2023/08/17 00:59:46;;;;;;;3.80;3.70;;;;;;;16.96;89.86;101603.06;4827133;29;20214;-74
2023/08/17 01:02:31;;;;;;;4.03;3.83;;;;;;;16.90;89.70;101602.72;4825548;29;20333;-74
2023/08/17 01:04:57;;;;;;;4.80;4.40;;;;;;;16.92;89.77;101590.91;4827311;29;20211;-74
2023/08/17 01:07:25;;;;;;;5.57;5.37;;;;;;;16.90;89.90;101588.38;4825432;29;20601;-74
2023/08/17 01:09:52;;;;;;;4.80;4.33;;;;;;;16.89;90.28;101590.22;4825489;29;20234;-74
2023/08/17 01:12:29;;;;;;;4.63;4.43;;;;;;;16.91;90.19;101590.06;4825476;29;20278;-74
2023/08/17 01:15:18;;;;;;;5.07;4.77;;;;;;;16.88;90.33;101588.56;4825476;29;20187;-74
2023/08/17 01:17:56;;;;;;;4.87;4.87;;;;;;;16.87;90.30;101589.56;4827136;29;20243;-74
2023/08/17 01:20:24;;;;;;;6.40;5.93;;;;;;;16.88;90.43;101591.25;4826754;29;20187;-74
2023/08/17 01:22:56;;;;;;;4.10;4.10;;;;;;;16.89;90.32;101586.66;4826992;29;20223;-74
2023/08/17 01:25:23;;;;;;;4.17;4.00;;;;;;;16.88;90.51;101582.31;4825315;29;20618;-74
2023/08/17 01:27:50;;;;;;;5.07;4.60;;;;;;;16.88;90.36;101588.56;4826378;29;20216;-74
2023/08/17 01:30:18;;;;;;;5.00;4.80;;;;;;;16.88;90.36;101588.56;4826948;29;20248;-74
2023/08/17 01:32:58;;;;;;;5.17;5.03;;;;;;;16.88;90.64;101582.31;4826622;29;20195;-74
2023/08/17 01:35:37;;;;;;;4.50;4.50;;;;;;;16.89;90.77;101575.88;4826627;29;20197;-74
2023/08/17 01:38:09;;;;;;;5.00;4.80;;;;;;;16.91;90.56;101576.56;4825032;29;20226;-73
2023/08/17 01:40:36;;;;;;;4.40;4.10;;;;;;;16.92;90.56;101580.94;4826255;29;20229;-73
2023/08/17 01:43:03;;;;;;;4.10;4.10;;;;;;;16.94;90.61;101565.41;4824907;29;20215;-73
2023/08/17 01:45:30;;;;;;;5.23;5.13;;;;;;;16.96;90.43;101563.38;4826443;29;20240;-74
2023/08/17 01:47:56;;;;;;;4.60;4.17;;;;;;;16.96;90.31;101557.13;4824834;29;20227;-73
2023/08/17 01:50:23;;;;;;;5.10;4.90;;;;;;;16.97;90.25;101548.88;4824893;29;20199;-74
2023/08/17 01:52:51;;;;;;;4.67;4.53;;;;;;;16.96;90.36;101555.28;4824819;29;20255;-74
2023/08/17 01:55:17;;;;;;;5.83;5.43;;;;;;;16.96;90.38;101544.47;4824827;29;20200;-74
2023/08/17 01:57:44;;;;;;;6.17;5.60;;;;;;;16.96;90.24;101546.31;4824707;29;20219;-74
2023/08/17 02:00:11;;;;;;;5.53;5.03;;;;;;;16.93;90.52;101544.78;4824684;29;20203;-74
2023/08/17 02:02:40;;;;;;;4.60;4.43;;;;;;;16.90;90.46;101548.69;4826354;29;20217;-74
2023/08/17 02:05:07;;;;;;;5.17;5.07;;;;;;;16.89;90.63;101538.91;4824648;29;20226;-74
2023/08/17 02:07:34;;;;;;;5.80;5.60;;;;;;;16.89;90.22;101544.31;4825766;29;20207;-73
2023/08/17 02:10:00;;;;;;;5.30;5.10;;;;;;;16.88;90.78;101539.94;4824598;29;20203;-73
2023/08/17 02:12:27;;;;;;;4.10;4.10;;;;;;;16.88;90.51;101539.94;4826015;29;20605;-73
2023/08/17 02:14:53;;;;;;;4.67;4.47;;;;;;;16.86;90.52;101536.56;4824509;29;20203;-73
2023/08/17 02:17:21;;;;;;;4.10;4.00;;;;;;;16.89;90.33;101548.84;4826140;29;20208;-73
2023/08/17 02:19:48;;;;;;;4.53;4.43;;;;;;;16.87;90.12;101546.34;4825670;29;20194;-73
2023/08/17 02:22:15;;;;;;;4.67;4.57;;;;;;;16.84;90.55;101548.56;4824287;29;20260;-73
2023/08/17 02:24:41;;;;;;;4.57;4.47;;;;;;;16.81;90.43;101541.63;4825857;29;20549;-73
2023/08/17 02:27:09;;;;;;;5.30;5.00;;;;;;;16.82;90.42;101539.78;4824268;29;20293;-73
2023/08/17 02:29:35;;;;;;;5.60;5.17;;;;;;;16.78;90.40;101543.81;4824254;29;20210;-73
2023/08/17 02:32:02;;;;;;;5.10;4.80;;;;;;;16.75;90.29;101545.03;4824974;29;20195;-73
2023/08/17 02:34:28;;;;;;;4.57;4.37;;;;;;;16.76;90.31;101541.28;4824200;29;20203;-73
2023/08/17 02:36:55;;;;;;;5.43;5.13;;;;;;;16.73;90.27;101536.25;4824029;29;20261;-73
2023/08/17 02:39:21;;;;;;;4.80;4.60;;;;;;;16.72;90.01;101539.94;4824088;29;20218;-73
2023/08/17 02:41:49;;;;;;;6.07;5.57;;;;;;;16.67;90.35;101531.53;4825382;29;20179;-73
2023/08/17 02:44:15;;;;;;;4.90;4.53;;;;;;;16.64;90.28;101531.03;4825750;29;20290;-73
2023/08/17 02:46:42;;;;;;;4.77;4.77;;;;;;;16.61;90.30;101534.06;4825250;29;20203;-73
2023/08/17 02:49:08;;;;;;;4.87;4.73;;;;;;;16.60;90.50;101545.88;4825162;29;20215;-73
2023/08/17 02:51:35;;;;;;;5.13;5.03;;;;;;;16.59;90.38;101549.63;4825708;29;20203;-73
2023/08/17 02:54:01;;;;;;;5.10;4.80;;;;;;;16.57;90.43;101551.59;4825788;29;20191;-73
2023/08/17 02:56:28;;;;;;;4.77;4.57;;;;;;;16.58;90.44;101548.75;4823869;29;20199;-73
2023/08/17 02:58:55;;;;;;;5.20;5.10;;;;;;;16.61;90.03;101547.56;4823805;29;20235;-73
2023/08/17 03:01:21;;;;;;;5.13;4.93;;;;;;;16.56;90.38;101555.28;4823789;29;20199;-73
2023/08/17 03:03:48;;;;;;;4.60;4.60;;;;;;;16.56;90.31;101553.44;4823714;29;20284;-73
2023/08/17 03:06:14;;;;;;;5.70;5.40;;;;;;;16.55;90.92;101549.06;4825254;29;20557;-73
2023/08/17 03:08:41;;;;;;;6.27;5.70;;;;;;;16.51;90.37;101558.50;4824934;29;20219;-74
2023/08/17 03:11:10;;;;;;;5.73;5.17;;;;;;;16.46;90.41;101552.81;4823715;29;20199;-74
2023/08/17 03:13:37;;;;;;;8.33;4.27;;;;;;;16.42;90.38;101549.56;4824924;29;20720;-74
2023/08/17 03:16:03;;;;;;;5.33;4.87;;;;;;;16.41;90.32;101547.91;4824840;29;20199;-74
2023/08/17 03:18:30;;;;;;;6.53;5.13;;;;;;;16.40;90.57;101545.38;4823520;29;20226;-73
2023/08/17 03:20:57;;;;;;;5.23;4.93;;;;;;;16.40;90.33;101546.22;4823528;29;20206;-74
2023/08/17 03:23:24;;;;;;;5.37;5.13;;;;;;;16.37;90.37;101546.56;4823494;29;20227;-73
2023/08/17 03:25:52;;;;;;;5.63;5.40;;;;;;;16.36;90.48;101544.88;4824053;29;20199;-73
2023/08/17 03:28:19;;;;;;;5.77;5.43;;;;;;;16.35;90.59;101545.03;4823398;29;20317;-73
2023/08/17 03:30:46;;;;;;;5.50;5.03;;;;;;;16.33;90.72;101545.22;4824897;29;20207;-73
2023/08/17 03:33:12;;;;;;;5.53;5.23;;;;;;;16.32;90.72;101548.91;4824605;29;20244;-73
2023/08/17 03:35:39;;;;;;;5.40;5.10;;;;;;;16.34;90.47;101544.19;4824570;29;20197;-73
2023/08/17 03:38:07;;;;;;;5.93;5.37;;;;;;;16.34;90.64;101544.19;4823518;29;20280;-73
2023/08/17 03:40:33;;;;;;;5.27;5.10;;;;;;;16.31;90.66;101558.03;4824423;29;20200;-74
2023/08/17 03:43:00;;;;;;;5.37;5.17;;;;;;;16.31;90.66;101549.91;4823273;29;20287;-73
2023/08/17 03:45:27;;;;;;;5.33;4.40;;;;;;;16.31;90.79;101544.53;4822665;29;20580;-73
2023/08/17 03:47:53;;;;;;;8.73;5.43;;;;;;;16.30;90.63;101550.94;4824374;29;20245;-73
2023/08/17 03:50:20;;;;;;;5.80;5.40;;;;;;;16.31;90.75;101549.91;4823196;29;20208;-73
2023/08/17 03:52:47;;;;;;;5.47;5.03;;;;;;;16.29;90.80;101546.56;4823203;29;20271;-73
2023/08/17 03:55:13;;;;;;;5.63;5.17;;;;;;;16.30;90.52;101547.38;4824638;29;20203;-73
2023/08/17 03:57:40;;;;;;;5.73;5.23;;;;;;;16.25;90.93;101542.50;4824628;29;20215;-73
2023/08/17 04:00:07;;;;;;;5.70;5.30;;;;;;;16.25;90.79;101541.66;4823086;29;20203;-73
2023/08/17 04:02:39;;;;;;;5.77;5.23;;;;;;;16.23;90.83;101543.69;4824275;29;20187;-73
2023/08/17 04:05:06;;;;;;;6.93;5.20;;;;;;;16.23;90.99;101546.38;4823589;29;20320;-73
2023/08/17 04:07:32;;;;;;;8.03;5.27;;;;;;;16.20;90.97;101549.44;4824511;29;20707;-73
2023/08/17 04:09:58;;;;;;;5.07;4.77;;;;;;;16.21;90.89;101538.44;4824737;29;20716;-74
2023/08/17 04:12:26;;;;;;;5.43;5.30;;;;;;;16.20;90.79;101542.19;4822952;29;20199;-74
2023/08/17 04:14:53;;;;;;;5.40;5.10;;;;;;;16.20;90.86;101541.31;4822961;29;20199;-74
2023/08/17 04:17:20;;;;;;;5.50;4.50;;;;;;;16.19;90.28;101542.34;4822846;29;20634;-73
2023/08/17 04:19:48;;;;;;;4.60;4.47;;;;;;;16.18;91.14;101548.72;4823148;29;20211;-73
2023/08/17 04:22:14;;;;;;;6.27;5.07;;;;;;;16.19;91.30;101547.72;4822792;29;20290;-73
2023/08/17 04:24:41;;;;;;;4.90;4.60;;;;;;;16.18;90.93;101546.03;4823237;29;20226;-73
2023/08/17 04:27:08;;;;;;;5.40;5.00;;;;;;;16.14;90.91;101548.22;4822746;29;20223;-73
2023/08/17 04:29:34;;;;;;;6.23;5.60;;;;;;;16.13;91.12;101548.38;4824030;29;20195;-73
2023/08/17 04:32:02;;;;;;;4.83;4.70;;;;;;;16.11;91.13;101548.56;4822967;29;20702;-73
2023/08/17 04:34:28;;;;;;;5.10;4.83;;;;;;;16.14;91.06;101558.16;4822739;29;20568;-73
2023/08/17 04:36:55;;;;;;;4.83;4.50;;;;;;;16.15;91.07;101552.63;4822639;29;20223;-73
2023/08/17 04:39:22;;;;;;;10.90;5.40;;;;;;;16.18;91.09;101567.63;4822580;29;20219;-73
2023/08/17 04:41:49;;;;;;;4.73;4.73;;;;;;;16.17;91.12;101558.69;4822663;29;20210;-73
2023/08/17 04:44:21;;;;;;;4.53;4.23;;;;;;;16.20;91.02;101561.06;4822822;29;20219;-73
2023/08/17 04:46:48;;;;;;;3.70;3.70;;;;;;;16.20;91.07;101561.06;4822508;29;20293;-73
2023/08/17 04:49:14;;;;;;;5.27;5.07;;;;;;;16.19;91.78;101553.97;4822596;29;20203;-73
2023/08/17 04:51:41;;;;;;;5.30;5.20;;;;;;;16.21;91.23;101559.22;4822557;29;20203;-73
2023/08/17 04:54:07;;;;;;;3.70;3.60;;;;;;;16.21;91.32;101562.72;4822515;29;20202;-73
2023/08/17 04:56:34;;;;;;;7.83;4.93;;;;;;;16.23;91.17;101562.56;4824555;29;20272;-73
2023/08/17 04:59:00;;;;;;;5.03;4.97;;;;;;;16.23;91.41;101560.72;4827128;29;20220;-74
2023/08/17 05:01:27;;;;;;;4.50;4.20;;;;;;;16.23;91.13;101560.72;4826202;29;20232;-74
2023/08/17 05:03:54;;;;;;;5.13;4.70;;;;;;;16.25;91.36;101566.78;4825496;29;20714;-74
2023/08/17 05:06:21;;;;;;;11.70;4.40;;;;;;;16.25;91.10;101564.06;4825562;29;20725;-74
2023/08/17 05:08:48;;;;;;;5.87;5.37;;;;;;;16.24;91.20;101561.56;4825442;29;20219;-73
2023/08/17 05:11:15;;;;;;;5.13;5.03;;;;;;;16.24;90.96;101562.41;4825512;29;20210;-73
2023/08/17 05:13:41;;;;;;;5.60;5.50;;;;;;;16.26;91.28;101562.22;4826915;29;20198;-73
2023/08/17 05:16:07;;;;;;;5.53;5.23;;;;;;;16.27;91.24;101566.63;4825385;29;20199;-73
2023/08/17 05:18:34;;;;;;;5.83;5.13;;;;;;;16.28;91.14;101561.06;4825311;29;20313;-73
2023/08/17 05:21:01;;;;;;;4.53;4.23;;;;;;;16.28;91.32;101571.84;4825828;29;20537;-73
2023/08/17 05:23:30;;;;;;;5.60;5.20;;;;;;;16.29;91.33;101564.59;4825239;29;20219;-73
2023/08/17 05:25:56;;;;;;;5.00;4.77;;;;;;;16.31;91.25;101570.66;4825177;29;20585;-73
2023/08/17 05:28:23;;;;;;;5.30;5.20;;;;;;;16.30;91.34;101564.41;4825135;29;20219;-74
2023/08/17 05:30:49;;;;;;;5.13;4.93;;;;;;;16.33;91.25;101574.91;4825155;29;20203;-74
2023/08/17 05:33:16;;;;;;;6.07;5.00;;;;;;;16.35;91.39;101574.72;4825158;29;20244;-74
2023/08/17 05:35:43;;;;;;;5.67;5.30;;;;;;;16.36;91.34;101577.25;4825345;29;20231;-74
2023/08/17 05:38:10;;;;;;;4.63;4.53;;;;;;;16.40;91.31;101575.06;4825164;29;20250;-74
2023/08/17 05:40:36;;;;;;;5.20;4.80;;;;;;;16.44;91.41;101571.00;4825047;29;20557;-74
2023/08/17 05:43:03;;;;;;;7.07;4.67;;;;;;;16.42;91.23;101576.56;4824888;29;20568;-74
2023/08/17 05:45:30;;;;;;;6.87;5.07;;;;;;;16.43;91.79;101578.25;4826160;29;20195;-74
2023/08/17 05:47:56;;;;;;;5.03;4.70;;;;;;;16.42;91.21;101581.97;4824845;29;20218;-73
2023/08/17 05:50:22;;;;;;;4.70;4.37;;;;;;;16.43;91.52;101580.09;4826083;29;20227;-74
2023/08/17 05:52:49;;;;;;;5.13;4.93;;;;;;;16.46;91.28;101583.31;4826122;29;20669;-74
2023/08/17 05:55:15;;;;;;;4.97;4.87;;;;;;;16.43;91.04;101578.25;4826034;29;20191;-73
2023/08/17 05:57:42;;;;;;;5.80;5.53;;;;;;;16.41;91.32;101587.53;4825930;29;20211;-74
2023/08/17 06:00:12;;;;;;;7.17;5.37;;;;;;;16.42;91.06;101584.66;4826580;29;20187;-73
2023/08/17 06:02:40;;;;;;;5.03;4.93;;;;;;;16.42;91.23;101583.84;4825987;29;20172;-74
2023/08/17 06:05:08;;;;;;;5.13;4.97;;;;;;;16.41;91.13;101583.00;4825819;29;20215;-74
2023/08/17 06:07:35;;;;;;;4.87;4.70;;;;;;;16.42;91.25;101591.94;4825262;29;20215;-74
2023/08/17 06:10:05;;;;;;;5.93;5.63;;;;;;;16.43;91.24;101582.81;4825824;29;20192;-74
2023/08/17 06:12:32;;;;;;;5.27;5.03;;;;;;;16.43;91.27;101583.66;4826568;29;20184;-74
2023/08/17 06:14:58;;;;;;;5.60;5.40;;;;;;;16.43;91.27;101580.94;4825968;29;20192;-74
2023/08/17 06:17:25;;;;;;;5.63;5.20;;;;;;;16.42;91.35;101583.84;4825623;29;20223;-74
2023/08/17 06:19:52;;;;;;;6.30;5.80;;;;;;;16.40;91.40;101577.75;4825650;29;20192;-74
2023/08/17 06:22:18;;;;;;;5.37;5.07;;;;;;;16.42;91.34;101586.53;4825808;29;20665;-74
2023/08/17 06:24:45;;;;;;;5.93;5.60;;;;;;;16.43;90.99;101583.66;4825520;29;20215;-74
2023/08/17 06:27:14;;;;;;;6.07;5.50;;;;;;;16.43;91.38;101583.66;4825470;29;20219;-73
2023/08/17 06:29:40;;;;;;;6.40;5.93;;;;;;;16.43;91.26;101578.25;4825486;29;20737;-73
2023/08/17 06:32:08;;;;;;;5.80;5.50;;;;;;;16.46;91.21;101582.50;4825720;29;20278;-74
2023/08/17 06:34:34;;;;;;;6.17;5.67;;;;;;;16.46;91.19;101582.50;4825392;29;20264;-74
2023/08/17 06:37:03;;;;;;;6.20;5.80;;;;;;;16.47;91.24;101592.25;4825609;29;20598;-73
2023/08/17 06:39:29;;;;;;;10.30;6.90;;;;;;;16.45;91.29;101584.34;4825273;29;20199;-74
2023/08/17 06:41:57;;;;;;;7.00;6.70;;;;;;;16.45;91.37;101591.59;4825349;29;20598;-74
2023/08/17 06:44:23;;;;;;;7.07;6.67;;;;;;;16.50;91.51;101588.38;4825765;29;20248;-74
2023/08/17 06:46:50;;;;;;;6.80;6.40;;;;;;;16.52;91.51;101587.19;4825471;29;20202;-73
2023/08/17 06:49:17;;;;;;;6.53;6.10;;;;;;;16.56;91.38;101593.09;4825247;29;20687;-74
2023/08/17 06:51:43;;;;;;;8.03;7.40;;;;;;;16.57;91.23;101595.66;4825721;29;20260;-74
2023/08/17 06:54:10;;;;;;;14.77;10.03;;;;;;;16.56;91.19;101593.94;4825155;29;20589;-74
2023/08/17 06:56:36;;;;;;;8.13;7.63;;;;;;;16.57;91.12;101597.50;4825398;29;20179;-74
2023/08/17 06:59:03;;;;;;;7.03;6.57;;;;;;;16.57;91.33;101602.88;4825075;29;20222;-74
2023/08/17 07:01:29;;;;;;;7.50;6.80;;;;;;;16.61;91.46;101604.25;4825060;29;20299;-74
2023/08/17 07:03:57;;;;;;;15.23;9.13;;;;;;;16.60;91.64;101599.88;4825478;29;20214;-74
2023/08/17 07:06:25;;;;;;;9.93;7.67;;;;;;;16.61;91.67;101609.66;4824984;29;20708;-75
2023/08/17 07:08:52;;;;;;;9.13;8.90;;;;;;;16.67;91.39;101607.16;4825142;29;20215;-74
2023/08/17 07:11:19;;;;;;;9.23;8.43;;;;;;;16.70;91.42;101605.94;4824902;29;20198;-75
2023/08/17 07:13:45;;;;;;;10.10;8.57;;;;;;;16.74;91.38;101607.31;4824902;29;20203;-74
2023/08/17 07:16:12;;;;;;;13.33;8.63;;;;;;;16.72;91.37;101599.34;4825100;29;20195;-74
2023/08/17 07:18:39;;;;;;;8.90;8.13;;;;;;;16.78;91.61;101605.94;4824638;29;20222;-73
2023/08/17 07:21:05;;;;;;;8.87;8.43;;;;;;;16.81;91.49;101594.78;4824759;29;20239;-74
2023/08/17 07:23:32;;;;;;;17.73;10.47;;;;;;;16.79;91.75;101602.25;4824650;29;20207;-74
2023/08/17 07:25:58;;;;;;;13.03;9.47;;;;;;;16.83;91.14;101606.28;4824746;29;20582;-73
2023/08/17 07:28:25;;;;;;;25.57;10.43;;;;;;;16.79;91.53;101610.34;4824608;29;20302;-74
2023/08/17 07:30:51;;;;;;;10.53;9.63;;;;;;;16.81;91.22;101611.84;4824922;29;20682;-74
2023/08/17 07:33:18;;;;;;;11.00;10.33;;;;;;;16.87;90.87;101607.63;4824646;29;20223;-74
2023/08/17 07:35:45;;;;;;;12.30;10.07;;;;;;;16.81;91.24;101614.53;4824647;29;20540;-73
2023/08/17 07:38:11;;;;;;;13.00;10.80;;;;;;;16.79;90.54;101613.03;4824467;29;20227;-73
2023/08/17 07:40:38;;;;;;;14.27;9.77;;;;;;;16.78;91.23;101617.59;4824600;29;20195;-73
2023/08/17 07:43:04;;;;;;;12.70;10.97;;;;;;;16.78;91.43;101612.19;4825003;29;20195;-73
2023/08/17 07:45:31;;;;;;;11.23;9.80;;;;;;;16.82;91.35;101618.09;4824724;29;20211;-73
2023/08/17 07:47:57;;;;;;;12.40;11.20;;;;;;;16.86;91.29;101622.13;4824680;29;20215;-73
2023/08/17 07:50:24;;;;;;;11.37;10.57;;;;;;;16.85;91.30;101626.69;4824420;29;20205;-73
2023/08/17 07:52:50;;;;;;;15.00;10.63;;;;;;;16.86;91.57;101617.59;4824407;29;20195;-74
2023/08/17 07:55:17;;;;;;;12.37;11.27;;;;;;;16.87;91.35;101621.13;4824369;29;20195;-74
2023/08/17 07:57:43;;;;;;;10.83;9.70;;;;;;;16.88;91.28;101620.13;4824775;29;20220;-73
2023/08/17 08:00:10;;;;;;;12.43;10.47;;;;;;;16.93;91.47;101623.13;4824283;29;20203;-73
2023/08/17 08:02:37;;;;;;;13.83;9.37;;;;;;;16.91;91.33;101627.88;4824517;29;20183;-73
2023/08/17 08:05:04;;;;;;;12.03;9.67;;;;;;;16.94;91.36;101632.06;4824489;29;20620;-73
2023/08/17 08:07:32;;;;;;;10.57;9.87;;;;;;;16.91;91.27;101638.69;4824237;29;20219;-73
2023/08/17 08:09:58;;;;;;;10.70;9.73;;;;;;;16.93;91.48;101646.63;4824466;29;20196;-74
2023/08/17 08:12:25;;;;;;;15.10;10.40;;;;;;;16.89;91.76;101646.94;4824663;29;20202;-73
2023/08/17 08:14:51;;;;;;;10.10;9.33;;;;;;;16.92;91.22;101639.53;4824446;29;20191;-73
2023/08/17 08:17:19;;;;;;;10.40;9.60;;;;;;;16.94;91.57;101646.44;4824695;29;20219;-73
2023/08/17 08:19:45;;;;;;;10.20;9.40;;;;;;;16.97;91.65;101642.56;4824115;29;20230;-73
2023/08/17 08:22:12;;;;;;;9.87;8.97;;;;;;;16.99;91.67;101635.97;4824097;29;20191;-73
2023/08/17 08:24:40;;;;;;;11.30;10.43;;;;;;;17.04;91.51;101643.56;4823983;29;20207;-73
2023/08/17 08:27:10;;;;;;;12.80;10.63;;;;;;;17.04;91.33;101633.59;4824228;29;20318;-73
2023/08/17 08:29:37;;;;;;;23.40;10.03;;;;;;;17.05;91.36;101637.16;4824529;29;20203;-73
2023/08/17 08:32:04;;;;;;;10.10;9.30;;;;;;;17.05;91.12;101638.00;4827387;29;20532;-73
2023/08/17 08:34:31;;;;;;;11.33;10.27;;;;;;;17.04;91.68;101647.09;4827325;29;20191;-73
2023/08/17 08:36:57;;;;;;;11.27;10.47;;;;;;;17.06;91.61;101636.97;4827429;29;20202;-73
2023/08/17 08:39:27;;;;;;;11.23;10.23;;;;;;;17.07;91.78;101638.66;4826993;29;20738;-73
2023/08/17 08:41:55;;;;;;;8.27;7.67;;;;;;;17.05;91.68;101638.00;4827523;29;20218;-73
2023/08/17 08:44:22;;;;;;;10.00;9.20;;;;;;;17.06;92.03;101650.47;4827058;29;20713;-73
2023/08/17 08:46:49;;;;;;;10.40;9.40;;;;;;;17.06;91.54;101649.66;4827076;29;20571;-72
2023/08/17 08:49:21;;;;;;;12.00;9.97;;;;;;;17.08;91.60;101643.03;4827088;29;20203;-73
2023/08/17 08:51:50;;;;;;;12.00;9.33;;;;;;;17.06;91.69;101636.13;4827075;29;20179;-73
2023/08/17 08:54:22;;;;;;;10.20;9.30;;;;;;;17.10;91.60;101635.59;4826995;29;20221;-73
2023/08/17 08:56:57;;;;;;;11.07;9.90;;;;;;;17.11;91.73;101631.88;4827478;29;20271;-73
2023/08/17 08:59:26;;;;;;;10.40;9.50;;;;;;;17.15;91.67;101633.22;4826961;29;20187;-73
2023/08/17 09:01:54;;;;;;;10.03;9.33;;;;;;;17.14;91.57;101636.94;4827490;29;20203;-74
2023/08/17 09:04:20;;;;;;;10.30;9.50;;;;;;;17.15;91.85;101640.50;4827324;29;20222;-72
2023/08/17 09:06:47;;;;;;;9.73;9.07;;;;;;;17.10;91.72;101635.59;4826713;29;20199;-73
2023/08/17 09:09:16;;;;;;;10.00;9.10;;;;;;;17.15;91.78;101626.97;4827312;29;20711;-73
2023/08/17 09:11:43;;;;;;;11.03;10.20;;;;;;;17.16;91.73;101631.38;4826728;29;20202;-73
2023/08/17 09:14:10;;;;;;;10.17;9.50;;;;;;;17.17;91.91;101628.50;4826687;29;20191;-73
2023/08/17 09:16:37;;;;;;;11.87;10.77;;;;;;;17.14;91.91;101628.84;4826907;29;20581;-72
2023/08/17 09:19:04;;;;;;;12.17;10.33;;;;;;;17.16;91.81;101623.25;4826507;29;20257;-73
2023/08/17 09:21:32;;;;;;;11.13;10.33;;;;;;;17.19;91.97;101615.66;4827057;29;20199;-73
2023/08/17 09:23:59;;;;;;;12.43;11.27;;;;;;;17.20;91.95;101617.34;4826456;29;20203;-73
2023/08/17 09:26:30;;;;;;;11.63;10.27;;;;;;;17.28;91.71;101619.19;4826475;29;20215;-73
2023/08/17 09:28:58;;;;;;;10.40;9.73;;;;;;;17.32;91.16;101617.81;4826462;29;20211;-74
2023/08/17 09:31:25;;;;;;;11.87;9.60;;;;;;;17.39;91.59;101612.56;4826333;29;20199;-75
2023/08/17 09:33:52;;;;;;;12.80;9.60;;;;;;;17.39;91.44;101616.13;4826929;29;20199;-74
2023/08/17 09:36:22;;;;;;;14.43;9.83;;;;;;;17.43;91.49;101614.75;4826603;29;20542;-74
2023/08/17 09:38:50;;;;;;;9.97;9.00;;;;;;;17.45;91.49;101614.56;4826307;29;20219;-73
2023/08/17 09:41:18;;;;;;;10.13;9.60;;;;;;;17.45;91.12;101619.97;4825883;29;20213;-73
2023/08/17 09:43:46;;;;;;;10.87;9.93;;;;;;;17.42;91.07;101614.91;4825665;29;20203;-73
2023/08/17 09:46:12;;;;;;;11.17;10.17;;;;;;;17.41;91.46;101618.63;4826138;29;20306;-73
2023/08/17 09:48:39;;;;;;;10.30;9.50;;;;;;;17.42;91.57;101612.22;4826078;29;20231;-73
2023/08/17 09:51:06;;;;;;;11.87;10.70;;;;;;;17.47;91.39;101607.97;4826103;29;20688;-74
2023/08/17 09:53:39;;;;;;;13.10;8.77;;;;;;;17.53;91.29;101603.69;4826090;29;20194;-74
2023/08/17 09:56:10;;;;;;;10.70;9.83;;;;;;;17.60;91.46;101612.84;4826314;29;20191;-74
2023/08/17 09:58:43;;;;;;;12.97;11.60;;;;;;;17.63;91.42;101604.38;4826260;29;20226;-73
2023/08/17 10:01:12;;;;;;;13.63;8.97;;;;;;;17.65;90.98;101603.16;4826475;29;20279;-73
2023/08/17 10:03:41;;;;;;;13.73;10.83;;;;;;;17.67;90.91;101606.56;4826153;29;20223;-73
2023/08/17 10:06:12;;;;;;;12.80;11.43;;;;;;;17.68;90.68;101593.88;4825764;29;20211;-73
2023/08/17 10:08:51;;;;;;;11.73;10.73;;;;;;;17.67;90.63;101601.16;4826322;29;20222;-73
2023/08/17 10:11:21;;;;;;;11.10;10.00;;;;;;;17.69;91.08;101606.41;4819111;29;20210;-72
2023/08/17 10:13:59;;;;;;;10.43;9.77;;;;;;;17.71;91.31;101605.19;4821004;29;20199;-73
2023/08/17 10:16:42;;;;;;;12.50;10.97;;;;;;;17.75;90.90;101600.25;4821619;29;20239;-73
2023/08/17 10:19:21;;;;;;;16.70;10.90;;;;;;;17.80;90.67;101611.41;4825623;29;20214;-74
2023/08/17 10:22:06;;;;;;;11.03;10.13;;;;;;;17.82;90.57;101609.38;4825768;29;20186;-73
2023/08/17 10:24:36;;;;;;;10.87;9.97;;;;;;;17.86;90.20;101616.13;4825814;29;20556;-74
2023/08/17 10:27:05;;;;;;;17.63;11.63;;;;;;;17.88;90.56;101607.81;4825887;29;20190;-73
2023/08/17 10:29:33;;;;;;;10.87;9.43;;;;;;;17.89;90.58;101604.94;4825999;29;20195;-73
2023/08/17 10:32:03;;;;;;;12.60;11.20;;;;;;;17.89;90.22;101610.34;4825467;29;20206;-74
2023/08/17 10:34:30;;;;;;;12.20;10.73;;;;;;;17.88;90.09;101603.25;4825953;29;20263;-74
2023/08/17 10:36:58;;;;;;;11.63;10.63;;;;;;;17.88;89.99;101605.94;4825664;29;20644;-73
2023/08/17 10:39:26;;;;;;;9.97;9.37;;;;;;;17.88;89.84;101603.25;4825260;29;20552;-74
2023/08/17 10:41:56;;;;;;;12.80;11.70;;;;;;;17.94;89.78;101602.53;4824141;29;20272;-74
2023/08/17 10:44:48;;;;;;;14.50;11.03;;;;;;;18.01;89.97;101598.09;4825825;29;20199;-74
2023/08/17 10:47:29;;;;;;;11.93;10.83;;;;;;;18.00;89.85;101599.09;4825262;29;20223;-73
2023/08/17 10:50:21;;;;;;;12.50;11.17;;;;;;;18.00;90.34;101596.41;4825498;29;20187;-73
2023/08/17 10:52:49;;;;;;;9.60;8.90;;;;;;;18.02;89.81;101599.78;4825297;29;20192;-73
2023/08/17 10:55:16;;;;;;;10.93;10.17;;;;;;;18.04;90.08;101603.13;4825194;29;20207;-73
2023/08/17 10:57:44;;;;;;;10.73;9.73;;;;;;;18.09;89.78;101603.44;4825332;29;20215;-73
2023/08/17 11:00:26;;;;;;;12.63;11.27;;;;;;;18.14;89.95;101602.91;4825082;29;20206;-74
2023/08/17 11:02:59;;;;;;;11.27;10.47;;;;;;;18.14;89.75;101600.19;4825613;29;20199;-74
2023/08/17 11:05:38;;;;;;;11.17;10.20;;;;;;;18.13;89.80;101595.81;4825177;29;20226;-74
2023/08/17 11:08:22;;;;;;;16.63;12.60;;;;;;;18.14;89.86;101592.94;4825256;29;20306;-73
2023/08/17 11:11:03;;;;;;;14.10;12.63;;;;;;;18.16;89.57;101599.00;4825265;29;20192;-73
2023/08/17 11:13:35;;;;;;;14.30;12.80;;;;;;;18.11;89.16;101596.00;4825212;29;20180;-73
2023/08/17 11:16:03;;;;;;;12.20;11.00;;;;;;;18.08;89.57;101599.03;4825196;29;20190;-73
2023/08/17 11:18:32;;;;;;;10.73;9.83;;;;;;;18.13;89.60;101599.34;4825012;29;20223;-73
2023/08/17 11:21:00;;;;;;;17.83;11.60;;;;;;;18.17;89.13;101603.38;4824754;29;20203;-73
2023/08/17 11:23:29;;;;;;;12.93;11.67;;;;;;;18.19;89.45;101590.53;4824773;29;20199;-73
2023/08/17 11:25:56;;;;;;;16.03;11.50;;;;;;;18.21;89.39;101599.28;4825153;29;20215;-73